sensor_id;sensor_type;location;lat;lon;timestamp;pressure;altitude;pressure_sealevel;temperature;humidity
21433;BME280;18592;49.708;10.900;2023-01-31T00:01:33;99206.25;;;7.29;55.39
21433;BME280;18592;49.708;10.900;2023-01-31T00:03:35;99202.75;;;7.28;55.48
21433;BME280;18592;49.708;10.900;2023-01-31T00:05:37;99208.38;;;7.27;55.25
21433;BME280;18592;49.708;10.900;2023-01-31T00:07:40;99204.81;;;7.26;55.36
21433;BME280;18592;49.708;10.900;2023-01-31T00:09:41;99210.47;;;7.25;55.42
21433;BME280;18592;49.708;10.900;2023-01-31T00:11:43;99203.34;;;7.24;55.48
21433;BME280;18592;49.708;10.900;2023-01-31T00:13:45;99205.47;;;7.22;55.41
21433;BME280;18592;49.708;10.900;2023-01-31T00:15:47;99206.53;;;7.21;55.28
21433;BME280;18592;49.708;10.900;2023-01-31T00:17:48;99207.56;;;7.20;55.09
21433;BME280;18592;49.708;10.900;2023-01-31T00:19:50;99208.81;;;7.17;55.33
21433;BME280;18592;49.708;10.900;2023-01-31T00:21:52;99209.03;;;7.16;55.46
21433;BME280;18592;49.708;10.900;2023-01-31T00:23:54;99205.50;;;7.15;55.34
21433;BME280;18592;49.708;10.900;2023-01-31T00:28:09;99222.41;;;7.11;55.19
21433;BME280;18592;49.708;10.900;2023-01-31T00:30:10;99218.00;;;7.10;55.03
21433;BME280;18592;49.708;10.900;2023-01-31T00:32:12;99214.47;;;7.09;55.26
21433;BME280;18592;49.708;10.900;2023-01-31T00:34:14;99233.84;;;7.06;55.21
21433;BME280;18592;49.708;10.900;2023-01-31T00:36:20;99234.91;;;7.05;55.45
21433;BME280;18592;49.708;10.900;2023-01-31T00:38:22;99244.50;;;7.01;55.27
21433;BME280;18592;49.708;10.900;2023-01-31T00:40:25;99232.84;;;7.00;55.25
21433;BME280;18592;49.708;10.900;2023-01-31T00:42:27;99226.78;;;6.98;55.08
21433;BME280;18592;49.708;10.900;2023-01-31T00:44:28;99230.34;;;6.99;55.17
21433;BME280;18592;49.708;10.900;2023-01-31T00:46:31;99226.78;;;6.98;55.28
21433;BME280;18592;49.708;10.900;2023-01-31T00:48:33;99235.13;;;6.97;55.00
21433;BME280;18592;49.708;10.900;2023-01-31T00:50:35;99239.94;;;6.95;55.24
21433;BME280;18592;49.708;10.900;2023-01-31T00:52:38;99236.63;;;6.93;55.25
21433;BME280;18592;49.708;10.900;2023-01-31T00:54:39;99236.81;;;6.91;55.01
21433;BME280;18592;49.708;10.900;2023-01-31T00:56:43;99245.16;;;6.90;55.29
21433;BME280;18592;49.708;10.900;2023-01-31T00:58:45;99241.84;;;6.88;55.19
21433;BME280;18592;49.708;10.900;2023-01-31T01:00:50;99238.28;;;6.87;55.29
21433;BME280;18592;49.708;10.900;2023-01-31T01:02:52;99245.56;;;6.87;55.29
21433;BME280;18592;49.708;10.900;2023-01-31T01:04:56;99241.19;;;6.86;55.36
21433;BME280;18592;49.708;10.900;2023-01-31T01:06:58;99243.28;;;6.84;55.39
21433;BME280;18592;49.708;10.900;2023-01-31T01:08:59;99237.88;;;6.84;55.47
21433;BME280;18592;49.708;10.900;2023-01-31T01:11:25;99231.00;;;6.81;55.28
21433;BME280;18592;49.708;10.900;2023-01-31T01:13:30;99236.41;;;6.81;55.31
21433;BME280;18592;49.708;10.900;2023-01-31T01:15:36;99235.78;;;6.79;55.31
21433;BME280;18592;49.708;10.900;2023-01-31T01:17:38;99241.22;;;6.79;55.35
21433;BME280;18592;49.708;10.900;2023-01-31T01:19:42;99242.25;;;6.78;55.11
21433;BME280;18592;49.708;10.900;2023-01-31T01:21:44;99237.88;;;6.77;55.72
21433;BME280;18592;49.708;10.900;2023-01-31T01:23:46;99252.47;;;6.76;55.46
21433;BME280;18592;49.708;10.900;2023-01-31T01:25:48;99252.69;;;6.75;55.34
21433;BME280;18592;49.708;10.900;2023-01-31T01:27:50;99249.34;;;6.73;55.62
21433;BME280;18592;49.708;10.900;2023-01-31T01:29:52;99259.34;;;6.72;55.22
21433;BME280;18592;49.708;10.900;2023-01-31T01:31:53;99252.88;;;6.73;55.09
21433;BME280;18592;49.708;10.900;2023-01-31T01:34:07;99250.59;;;6.70;55.42
21433;BME280;18592;49.708;10.900;2023-01-31T01:36:12;99251.63;;;6.69;55.08
21433;BME280;18592;49.708;10.900;2023-01-31T01:38:17;99251.03;;;6.67;55.46
21433;BME280;18592;49.708;10.900;2023-01-31T01:40:21;99250.19;;;6.67;55.34
21433;BME280;18592;49.708;10.900;2023-01-31T01:42:24;99246.84;;;6.65;55.24
21433;BME280;18592;49.708;10.900;2023-01-31T01:44:49;99252.47;;;6.63;55.10
21433;BME280;18592;49.708;10.900;2023-01-31T01:46:52;99245.59;;;6.61;55.29
21433;BME280;18592;49.708;10.900;2023-01-31T01:49:00;99262.06;;;6.59;55.29
21433;BME280;18592;49.708;10.900;2023-01-31T01:51:04;99256.88;;;6.58;55.18
21433;BME280;18592;49.708;10.900;2023-01-31T01:53:11;99256.44;;;6.54;55.24
21433;BME280;18592;49.708;10.900;2023-01-31T01:55:35;99261.22;;;6.52;55.36
21433;BME280;18592;49.708;10.900;2023-01-31T01:57:40;99263.94;;;6.52;55.23
21433;BME280;18592;49.708;10.900;2023-01-31T01:59:51;99263.31;;;6.50;55.30
21433;BME280;18592;49.708;10.900;2023-01-31T02:01:57;99258.94;;;6.49;55.12
21433;BME280;18592;49.708;10.900;2023-01-31T02:04:05;99268.91;;;6.49;54.93
21433;BME280;18592;49.708;10.900;2023-01-31T02:06:07;99261.63;;;6.49;55.05
21433;BME280;18592;49.708;10.900;2023-01-31T02:08:11;99258.50;;;6.46;55.50
21433;BME280;18592;49.708;10.900;2023-01-31T02:10:19;99266.00;;;6.44;55.13
21433;BME280;18592;49.708;10.900;2023-01-31T02:12:23;99263.28;;;6.44;54.98
21433;BME280;18592;49.708;10.900;2023-01-31T02:14:26;99263.50;;;6.42;55.06
21433;BME280;18592;49.708;10.900;2023-01-31T02:16:28;99260.81;;;6.42;55.33
21433;BME280;18592;49.708;10.900;2023-01-31T02:18:31;99274.75;;;6.39;55.14
21433;BME280;18592;49.708;10.900;2023-01-31T02:35:16;99263.91;;;6.26;55.42
21433;BME280;18592;49.708;10.900;2023-01-31T02:40:18;99287.63;;;6.24;55.17
21433;BME280;18592;49.708;10.900;2023-01-31T02:42:49;99279.72;;;6.22;55.36
21433;BME280;18592;49.708;10.900;2023-01-31T02:45:13;99285.56;;;6.19;55.54
21433;BME280;18592;49.708;10.900;2023-01-31T02:49:39;99285.97;;;6.16;55.23
21433;BME280;18592;49.708;10.900;2023-01-31T02:51:50;99296.56;;;6.18;55.39
21433;BME280;18592;49.708;10.900;2023-01-31T02:54:18;99294.91;;;6.17;55.59
21433;BME280;18592;49.708;10.900;2023-01-31T02:56:32;99294.91;;;6.17;55.46
21433;BME280;18592;49.708;10.900;2023-01-31T02:58:37;99292.41;;;6.15;55.17
21433;BME280;18592;49.708;10.900;2023-01-31T03:00:42;99299.69;;;6.15;55.27
21433;BME280;18592;49.708;10.900;2023-01-31T03:02:46;99304.28;;;6.14;55.33
21433;BME280;18592;49.708;10.900;2023-01-31T03:04:48;99310.50;;;6.15;55.65
21433;BME280;18592;49.708;10.900;2023-01-31T03:11:10;99300.75;;;6.14;55.39
21433;BME280;18592;49.708;10.900;2023-01-31T03:18:09;99319.47;;;6.09;55.65
21433;BME280;18592;49.708;10.900;2023-01-31T03:20:23;99326.75;;;6.08;55.27
21433;BME280;18592;49.708;10.900;2023-01-31T03:22:36;99325.91;;;6.08;55.23
21433;BME280;18592;49.708;10.900;2023-01-31T03:24:40;99330.47;;;6.07;55.11
21433;BME280;18592;49.708;10.900;2023-01-31T03:26:43;99334.84;;;6.08;55.56
21433;BME280;18592;49.708;10.900;2023-01-31T03:28:46;99350.06;;;6.09;55.49
21433;BME280;18592;49.708;10.900;2023-01-31T03:30:54;99349.00;;;6.10;55.10
21433;BME280;18592;49.708;10.900;2023-01-31T03:33:07;99342.75;;;6.10;55.31
21433;BME280;18592;49.708;10.900;2023-01-31T03:35:11;99340.91;;;6.10;55.43
21433;BME280;18592;49.708;10.900;2023-01-31T03:40:03;99350.88;;;6.10;56.07
21433;BME280;18592;49.708;10.900;2023-01-31T03:44:54;99357.97;;;6.11;55.61
21433;BME280;18592;49.708;10.900;2023-01-31T03:47:13;99363.16;;;6.12;56.10
21433;BME280;18592;49.708;10.900;2023-01-31T03:49:17;99368.41;;;6.14;55.38
21433;BME280;18592;49.708;10.900;2023-01-31T03:51:24;99369.03;;;6.16;56.09
21433;BME280;18592;49.708;10.900;2023-01-31T03:53:41;99362.59;;;6.17;55.76
21433;BME280;18592;49.708;10.900;2023-01-31T03:55:56;99373.41;;;6.17;55.51
21433;BME280;18592;49.708;10.900;2023-01-31T03:58:01;99366.75;;;6.19;55.83
21433;BME280;18592;49.708;10.900;2023-01-31T04:00:06;99366.09;;;6.17;55.76
21433;BME280;18592;49.708;10.900;2023-01-31T04:02:15;99370.28;;;6.20;56.03
21433;BME280;18592;49.708;10.900;2023-01-31T04:04:29;99373.81;;;6.20;55.81
21433;BME280;18592;49.708;10.900;2023-01-31T04:06:34;99381.75;;;6.22;55.73
21433;BME280;18592;49.708;10.900;2023-01-31T04:08:36;99379.69;;;6.24;55.80
21433;BME280;18592;49.708;10.900;2023-01-31T04:10:41;99379.69;;;6.24;55.82
21433;BME280;18592;49.708;10.900;2023-01-31T04:12:44;99387.59;;;6.25;55.62
21433;BME280;18592;49.708;10.900;2023-01-31T04:14:45;99384.03;;;6.25;55.98
21433;BME280;18592;49.708;10.900;2023-01-31T04:16:47;99380.31;;;6.26;55.99
21433;BME280;18592;49.708;10.900;2023-01-31T04:18:48;99382.78;;;6.27;55.60
21433;BME280;18592;49.708;10.900;2023-01-31T04:20:52;99380.94;;;6.28;55.56
21433;BME280;18592;49.708;10.900;2023-01-31T04:22:53;99390.72;;;6.29;55.65
21433;BME280;18592;49.708;10.900;2023-01-31T04:24:55;99392.59;;;6.28;55.85
21433;BME280;18592;49.708;10.900;2023-01-31T04:26:59;99384.25;;;6.30;55.67
21433;BME280;18592;49.708;10.900;2023-01-31T04:29:01;99389.50;;;6.31;55.89
21433;BME280;18592;49.708;10.900;2023-01-31T04:31:03;99385.72;;;6.32;56.10
21433;BME280;18592;49.708;10.900;2023-01-31T04:33:05;99395.53;;;6.33;55.93
21433;BME280;18592;49.708;10.900;2023-01-31T04:35:09;99380.13;;;6.34;55.75
21433;BME280;18592;49.708;10.900;2023-01-31T04:37:11;99382.63;;;6.35;56.11
21433;BME280;18592;49.708;10.900;2023-01-31T04:39:13;99383.47;;;6.36;56.12
21433;BME280;18592;49.708;10.900;2023-01-31T04:41:16;99383.47;;;6.36;56.07
21433;BME280;18592;49.708;10.900;2023-01-31T04:43:18;99382.22;;;6.38;56.13
21433;BME280;18592;49.708;10.900;2023-01-31T04:45:20;99387.41;;;6.40;55.70
21433;BME280;18592;49.708;10.900;2023-01-31T04:47:22;99387.41;;;6.40;55.84
21433;BME280;18592;49.708;10.900;2023-01-31T04:49:23;99364.72;;;6.41;56.18
21433;BME280;18592;49.708;10.900;2023-01-31T04:51:29;99375.56;;;6.41;56.15
21433;BME280;18592;49.708;10.900;2023-01-31T04:53:33;99387.22;;;6.42;56.21
21433;BME280;18592;49.708;10.900;2023-01-31T04:55:38;99380.56;;;6.44;55.62
21433;BME280;18592;49.708;10.900;2023-01-31T04:57:40;99371.44;;;6.45;56.06
21433;BME280;18592;49.708;10.900;2023-01-31T04:59:41;99369.53;;;6.46;56.00
21433;BME280;18592;49.708;10.900;2023-01-31T05:01:44;99375.59;;;6.48;55.81
21433;BME280;18592;49.708;10.900;2023-01-31T05:03:46;99377.25;;;6.49;56.18
21433;BME280;18592;49.708;10.900;2023-01-31T05:05:48;99379.94;;;6.49;55.96
21433;BME280;18592;49.708;10.900;2023-01-31T05:07:50;99372.66;;;6.49;56.10
21433;BME280;18592;49.708;10.900;2023-01-31T05:09:52;99379.78;;;6.50;56.10
21433;BME280;18592;49.708;10.900;2023-01-31T05:11:54;99369.75;;;6.51;56.21
21433;BME280;18592;49.708;10.900;2023-01-31T05:13:55;99372.25;;;6.52;56.14
21433;BME280;18592;49.708;10.900;2023-01-31T05:15:57;99371.44;;;6.52;55.82
21433;BME280;18592;49.708;10.900;2023-01-31T05:17:59;99371.22;;;6.53;55.90
21433;BME280;18592;49.708;10.900;2023-01-31T05:20:08;99372.03;;;6.54;56.00
21433;BME280;18592;49.708;10.900;2023-01-31T05:22:10;99368.50;;;6.53;56.23
21433;BME280;18592;49.708;10.900;2023-01-31T05:24:11;99370.19;;;6.54;56.05
21433;BME280;18592;49.708;10.900;2023-01-31T05:26:15;99363.75;;;6.55;56.04
21433;BME280;18592;49.708;10.900;2023-01-31T05:28:17;99365.38;;;6.56;56.18
21433;BME280;18592;49.708;10.900;2023-01-31T05:30:19;99366.00;;;6.58;56.02
21433;BME280;18592;49.708;10.900;2023-01-31T05:32:21;99366.00;;;6.58;56.00
21433;BME280;18592;49.708;10.900;2023-01-31T05:34:23;99356.00;;;6.59;55.93
21433;BME280;18592;49.708;10.900;2023-01-31T05:36:26;99356.84;;;6.59;56.27
21433;BME280;18592;49.708;10.900;2023-01-31T05:38:27;99360.19;;;6.61;56.22
21433;BME280;18592;49.708;10.900;2023-01-31T05:40:29;99364.75;;;6.61;56.23
21433;BME280;18592;49.708;10.900;2023-01-31T05:42:31;99367.28;;;6.62;55.98
21433;BME280;18592;49.708;10.900;2023-01-31T05:44:33;99369.16;;;6.62;56.14
21433;BME280;18592;49.708;10.900;2023-01-31T05:46:35;99362.72;;;6.63;56.09
21433;BME280;18592;49.708;10.900;2023-01-31T05:48:37;99376.03;;;6.64;56.14
21433;BME280;18592;49.708;10.900;2023-01-31T05:50:40;99368.94;;;6.63;56.03
21433;BME280;18592;49.708;10.900;2023-01-31T05:52:42;99372.47;;;6.64;56.21
21433;BME280;18592;49.708;10.900;2023-01-31T05:54:44;99379.78;;;6.63;55.91
21433;BME280;18592;49.708;10.900;2023-01-31T05:56:46;99382.47;;;6.63;56.29
21433;BME280;18592;49.708;10.900;2023-01-31T05:58:47;99387.72;;;6.65;56.19
21433;BME280;18592;49.708;10.900;2023-01-31T06:00:54;99385.00;;;6.65;56.00
21433;BME280;18592;49.708;10.900;2023-01-31T06:02:58;99386.66;;;6.66;56.15
21433;BME280;18592;49.708;10.900;2023-01-31T06:05:00;99388.56;;;6.65;55.99
21433;BME280;18592;49.708;10.900;2023-01-31T06:07:06;99380.22;;;6.67;56.07
21433;BME280;18592;49.708;10.900;2023-01-31T06:09:09;99386.47;;;6.67;56.02
21433;BME280;18592;49.708;10.900;2023-01-31T06:11:12;99389.19;;;6.67;56.02
21433;BME280;18592;49.708;10.900;2023-01-31T06:13:18;99385.41;;;6.68;56.01
21433;BME280;18592;49.708;10.900;2023-01-31T06:15:20;99393.53;;;6.68;56.02
21433;BME280;18592;49.708;10.900;2023-01-31T06:17:22;99388.13;;;6.68;56.09
21433;BME280;18592;49.708;10.900;2023-01-31T06:19:24;99395.22;;;6.69;56.30
21433;BME280;18592;49.708;10.900;2023-01-31T06:21:32;99392.28;;;6.71;56.10
21433;BME280;18592;49.708;10.900;2023-01-31T06:23:34;99398.75;;;6.70;56.07
21433;BME280;18592;49.708;10.900;2023-01-31T06:25:35;99387.72;;;6.71;56.16
21433;BME280;18592;49.708;10.900;2023-01-31T06:27:37;99388.75;;;6.70;56.13
21433;BME280;18592;49.708;10.900;2023-01-31T06:29:38;99386.69;;;6.72;56.09
21433;BME280;18592;49.708;10.900;2023-01-31T06:31:43;99387.72;;;6.71;56.06
21433;BME280;18592;49.708;10.900;2023-01-31T06:33:45;99394.81;;;6.72;56.05
21433;BME280;18592;49.708;10.900;2023-01-31T06:35:50;99393.97;;;6.72;55.92
21433;BME280;18592;49.708;10.900;2023-01-31T06:37:53;99393.13;;;6.71;56.18
21433;BME280;18592;49.708;10.900;2023-01-31T06:39:56;99386.06;;;6.70;56.19
21433;BME280;18592;49.708;10.900;2023-01-31T06:41:58;99390.63;;;6.70;56.12
21433;BME280;18592;49.708;10.900;2023-01-31T06:44:00;99391.03;;;6.67;55.74
21433;BME280;18592;49.708;10.900;2023-01-31T06:46:01;99401.03;;;6.66;55.96
21433;BME280;18592;49.708;10.900;2023-01-31T06:48:03;99396.03;;;6.63;55.84
21433;BME280;18592;49.708;10.900;2023-01-31T06:50:05;99402.50;;;6.62;55.93
21433;BME280;18592;49.708;10.900;2023-01-31T06:52:07;99399.34;;;6.59;56.13
21433;BME280;18592;49.708;10.900;2023-01-31T06:54:09;99393.94;;;6.59;55.95
21433;BME280;18592;49.708;10.900;2023-01-31T06:56:10;99393.31;;;6.57;56.06
21433;BME280;18592;49.708;10.900;2023-01-31T06:58:12;99405.19;;;6.56;55.54
21433;BME280;18592;49.708;10.900;2023-01-31T07:00:21;99399.97;;;6.54;55.92
21433;BME280;18592;49.708;10.900;2023-01-31T07:02:23;99399.97;;;6.54;55.99
21433;BME280;18592;49.708;10.900;2023-01-31T07:04:25;99401.00;;;6.53;55.99
21433;BME280;18592;49.708;10.900;2023-01-31T07:06:26;99410.19;;;6.52;56.40
21433;BME280;18592;49.708;10.900;2023-01-31T07:08:29;99421.00;;;6.52;55.73
21433;BME280;18592;49.708;10.900;2023-01-31T07:10:36;99413.91;;;6.51;56.14
21433;BME280;18592;49.708;10.900;2023-01-31T07:12:38;99418.50;;;6.51;56.13
21433;BME280;18592;49.708;10.900;2023-01-31T07:14:40;99418.72;;;6.49;55.95
21433;BME280;18592;49.708;10.900;2023-01-31T07:16:43;99418.09;;;6.47;56.10
21433;BME280;18592;49.708;10.900;2023-01-31T07:18:44;99413.69;;;6.46;55.92
21433;BME280;18592;49.708;10.900;2023-01-31T07:20:46;99418.50;;;6.44;55.86
21433;BME280;18592;49.708;10.900;2023-01-31T07:23:00;99419.72;;;6.42;55.59
21433;BME280;18592;49.708;10.900;2023-01-31T07:25:03;99425.97;;;6.42;55.95
21433;BME280;18592;49.708;10.900;2023-01-31T07:27:04;99424.31;;;6.41;56.23
21433;BME280;18592;49.708;10.900;2023-01-31T07:29:06;99419.91;;;6.40;55.77
21433;BME280;18592;49.708;10.900;2023-01-31T07:31:11;99428.03;;;6.40;56.07
21433;BME280;18592;49.708;10.900;2023-01-31T07:33:13;99417.19;;;6.40;56.12
21433;BME280;18592;49.708;10.900;2023-01-31T07:35:15;99418.03;;;6.40;55.92
21433;BME280;18592;49.708;10.900;2023-01-31T07:37:16;99414.09;;;6.43;56.30
21433;BME280;18592;49.708;10.900;2023-01-31T07:39:18;99412.22;;;6.44;55.81
21433;BME280;18592;49.708;10.900;2023-01-31T07:41:22;99419.31;;;6.45;56.03
21433;BME280;18592;49.708;10.900;2023-01-31T07:43:24;99426.22;;;6.47;55.97
21433;BME280;18592;49.708;10.900;2023-01-31T07:45:29;99417.03;;;6.48;55.94
21433;BME280;18592;49.708;10.900;2023-01-31T07:47:31;99412.25;;;6.50;56.03
21433;BME280;18592;49.708;10.900;2023-01-31T07:49:32;99424.75;;;6.51;56.14
21433;BME280;18592;49.708;10.900;2023-01-31T07:51:36;99420.81;;;6.54;56.17
21433;BME280;18592;49.708;10.900;2023-01-31T07:53:39;99430.59;;;6.55;56.00
21433;BME280;18592;49.708;10.900;2023-01-31T07:55:43;99423.94;;;6.57;56.33
21433;BME280;18592;49.708;10.900;2023-01-31T07:57:50;99431.00;;;6.58;56.49
21433;BME280;18592;49.708;10.900;2023-01-31T07:59:52;99434.38;;;6.60;56.31
21433;BME280;18592;49.708;10.900;2023-01-31T08:01:53;99426.03;;;6.62;56.41
21433;BME280;18592;49.708;10.900;2023-01-31T08:04:15;99428.53;;;6.63;56.30
21433;BME280;18592;49.708;10.900;2023-01-31T08:06:22;99430.22;;;6.64;56.17
21433;BME280;18592;49.708;10.900;2023-01-31T08:08:24;99426.47;;;6.65;56.22
21433;BME280;18592;49.708;10.900;2023-01-31T08:10:28;99430.84;;;6.66;56.48
21433;BME280;18592;49.708;10.900;2023-01-31T08:12:30;99433.13;;;6.69;56.21
21433;BME280;18592;49.708;10.900;2023-01-31T08:14:32;99435.63;;;6.71;56.43
21433;BME280;18592;49.708;10.900;2023-01-31T08:16:34;99446.47;;;6.71;56.45
21433;BME280;18592;49.708;10.900;2023-01-31T08:18:37;99446.06;;;6.74;56.44
21433;BME280;18592;49.708;10.900;2023-01-31T08:20:39;99438.78;;;6.74;56.30
21433;BME280;18592;49.708;10.900;2023-01-31T08:22:41;99433.81;;;6.78;56.51
21433;BME280;18592;49.708;10.900;2023-01-31T08:24:43;99440.69;;;6.80;56.44
21433;BME280;18592;49.708;10.900;2023-01-31T08:26:44;99439.22;;;6.84;56.37
21433;BME280;18592;49.708;10.900;2023-01-31T08:28:49;99437.13;;;6.86;56.29
21433;BME280;18592;49.708;10.900;2023-01-31T08:30:51;99438.59;;;6.89;56.49
21433;BME280;18592;49.708;10.900;2023-01-31T08:33:10;99443.38;;;6.93;56.53
21433;BME280;18592;49.708;10.900;2023-01-31T08:35:12;99449.66;;;6.94;56.48
21433;BME280;18592;49.708;10.900;2023-01-31T08:37:14;99451.13;;;6.96;56.63
21433;BME280;18592;49.708;10.900;2023-01-31T08:39:18;99454.25;;;7.00;56.44
21433;BME280;18592;49.708;10.900;2023-01-31T08:41:21;99447.59;;;7.02;56.64
21433;BME280;18592;49.708;10.900;2023-01-31T08:43:23;99456.34;;;7.04;56.69
21433;BME280;18592;49.708;10.900;2023-01-31T08:45:27;99448.00;;;7.06;56.44
21433;BME280;18592;49.708;10.900;2023-01-31T08:47:29;99441.53;;;7.07;56.61
21433;BME280;18592;49.708;10.900;2023-01-31T08:49:30;99438.63;;;7.09;56.74
21433;BME280;18592;49.708;10.900;2023-01-31T08:51:36;99439.28;;;7.11;56.50
21433;BME280;18592;49.708;10.900;2023-01-31T08:53:40;99434.47;;;7.13;56.43
21433;BME280;18592;49.708;10.900;2023-01-31T08:55:42;99438.63;;;7.15;56.44
21433;BME280;18592;49.708;10.900;2023-01-31T08:57:43;99444.06;;;7.15;56.53
21433;BME280;18592;49.708;10.900;2023-01-31T09:00:00;99437.38;;;7.18;56.53
21433;BME280;18592;49.708;10.900;2023-01-31T09:02:02;99439.88;;;7.19;56.44
21433;BME280;18592;49.708;10.900;2023-01-31T09:04:03;99445.13;;;7.21;56.30
21433;BME280;18592;49.708;10.900;2023-01-31T09:06:09;99439.47;;;7.22;56.27
21433;BME280;18592;49.708;10.900;2023-01-31T09:08:11;99442.81;;;7.24;56.38
21433;BME280;18592;49.708;10.900;2023-01-31T09:10:13;99439.91;;;7.26;56.40
21433;BME280;18592;49.708;10.900;2023-01-31T09:12:14;99448.66;;;7.28;56.36
21433;BME280;18592;49.708;10.900;2023-01-31T09:14:16;99443.84;;;7.30;56.44
21433;BME280;18592;49.708;10.900;2023-01-31T09:16:18;99445.53;;;7.31;56.37
21433;BME280;18592;49.708;10.900;2023-01-31T09:18:20;99434.47;;;7.32;56.49
21433;BME280;18592;49.708;10.900;2023-01-31T09:20:22;99444.06;;;7.35;56.46
21433;BME280;18592;49.708;10.900;2023-01-31T09:22:24;99439.88;;;7.32;56.44
21433;BME280;18592;49.708;10.900;2023-01-31T09:24:25;99438.63;;;7.35;56.62
21433;BME280;18592;49.708;10.900;2023-01-31T09:26:27;99433.00;;;7.36;56.48
21433;BME280;18592;49.708;10.900;2023-01-31T09:28:29;99439.88;;;7.39;56.32
21433;BME280;18592;49.708;10.900;2023-01-31T09:30:31;99432.59;;;7.39;56.48
21433;BME280;18592;49.708;10.900;2023-01-31T09:32:34;99432.16;;;7.42;56.44
21433;BME280;18592;49.708;10.900;2023-01-31T09:34:37;99424.66;;;7.44;56.66
21433;BME280;18592;49.708;10.900;2023-01-31T09:36:39;99434.47;;;7.45;56.37
21433;BME280;18592;49.708;10.900;2023-01-31T09:38:40;99438.03;;;7.46;56.48
21433;BME280;18592;49.708;10.900;2023-01-31T09:40:42;99444.69;;;7.50;56.30
21433;BME280;18592;49.708;10.900;2023-01-31T09:42:47;99440.94;;;7.51;56.69
21433;BME280;18592;49.708;10.900;2023-01-31T09:44:57;99446.97;;;7.53;56.47
21433;BME280;18592;49.708;10.900;2023-01-31T09:47:21;99441.16;;;7.56;56.48
21433;BME280;18592;49.708;10.900;2023-01-31T09:49:31;99446.56;;;7.56;56.39
21433;BME280;18592;49.708;10.900;2023-01-31T09:51:38;99444.47;;;7.58;56.40
21433;BME280;18592;49.708;10.900;2023-01-31T09:53:41;99445.09;;;7.60;56.55
21433;BME280;18592;49.708;10.900;2023-01-31T09:58:34;99425.69;;;7.63;56.50
21433;BME280;18592;49.708;10.900;2023-01-31T10:00:47;99427.16;;;7.65;56.49
21433;BME280;18592;49.708;10.900;2023-01-31T10:05:11;99428.59;;;7.68;56.51
21433;BME280;18592;49.708;10.900;2023-01-31T10:07:22;99428.38;;;7.69;56.27
21433;BME280;18592;49.708;10.900;2023-01-31T10:09:41;99418.13;;;7.72;56.23
21433;BME280;18592;49.708;10.900;2023-01-31T10:11:51;99417.09;;;7.73;56.43
21433;BME280;18592;49.708;10.900;2023-01-31T10:14:00;99413.13;;;7.75;56.44
21433;BME280;18592;49.708;10.900;2023-01-31T10:19:08;99401.88;;;7.78;56.63
21433;BME280;18592;49.708;10.900;2023-01-31T10:21:19;99384.94;;;7.83;56.48
21433;BME280;18592;49.708;10.900;2023-01-31T10:23:33;99395.59;;;7.84;56.58
21433;BME280;18592;49.708;10.900;2023-01-31T10:26:13;99400.56;;;7.87;56.63
21433;BME280;18592;49.708;10.900;2023-01-31T10:28:39;99403.94;;;7.89;56.57
21433;BME280;18592;49.708;10.900;2023-01-31T10:30:50;99400.16;;;7.90;56.50
21433;BME280;18592;49.708;10.900;2023-01-31T10:33:01;99401.84;;;7.91;56.68
21433;BME280;18592;49.708;10.900;2023-01-31T10:35:22;99396.00;;;7.94;56.39
21433;BME280;18592;49.708;10.900;2023-01-31T10:37:37;99384.06;;;7.95;56.22
21433;BME280;18592;49.708;10.900;2023-01-31T10:39:45;99383.63;;;7.98;56.33
21433;BME280;18592;49.708;10.900;2023-01-31T10:42:04;99382.59;;;7.99;56.22
21433;BME280;18592;49.708;10.900;2023-01-31T10:44:39;99369.66;;;8.01;56.18
21433;BME280;18592;49.708;10.900;2023-01-31T10:46:34;99370.03;;;8.05;56.25
21433;BME280;18592;49.708;10.900;2023-01-31T10:48:36;99357.09;;;8.07;56.50
21433;BME280;18592;49.708;10.900;2023-01-31T10:50:53;99362.31;;;8.08;56.29
21433;BME280;18592;49.708;10.900;2023-01-31T10:55:28;99367.06;;;8.13;56.50
21433;BME280;18592;49.708;10.900;2023-01-31T10:57:34;99368.53;;;8.15;56.18
21433;BME280;18592;49.708;10.900;2023-01-31T10:59:40;99359.97;;;8.18;56.23
21433;BME280;18592;49.708;10.900;2023-01-31T11:01:43;99353.25;;;8.21;56.54
21433;BME280;18592;49.708;10.900;2023-01-31T11:03:51;99363.69;;;8.24;56.65
21433;BME280;18592;49.708;10.900;2023-01-31T11:05:55;99355.97;;;8.27;56.43
21433;BME280;18592;49.708;10.900;2023-01-31T11:10:31;99336.09;;;8.34;56.87
21433;BME280;18592;49.708;10.900;2023-01-31T11:12:42;99329.16;;;8.38;56.88
21433;BME280;18592;49.708;10.900;2023-01-31T11:15:10;99335.19;;;8.46;57.13
21433;BME280;18592;49.708;10.900;2023-01-31T11:17:17;99329.69;;;8.53;57.18
21433;BME280;18592;49.708;10.900;2023-01-31T11:19:24;99338.66;;;8.60;57.62
21433;BME280;18592;49.708;10.900;2023-01-31T11:21:30;99325.00;;;8.66;57.76
21433;BME280;18592;49.708;10.900;2023-01-31T11:23:34;99310.31;;;8.74;57.86
21433;BME280;18592;49.708;10.900;2023-01-31T11:25:36;99312.78;;;8.82;57.55
21433;BME280;18592;49.708;10.900;2023-01-31T11:27:41;99308.56;;;8.86;57.71
21433;BME280;18592;49.708;10.900;2023-01-31T11:29:49;99312.88;;;8.93;57.78
21433;BME280;18592;49.708;10.900;2023-01-31T11:31:51;99315.31;;;9.02;57.29
21433;BME280;18592;49.708;10.900;2023-01-31T11:33:59;99326.59;;;9.05;57.37
21433;BME280;18592;49.708;10.900;2023-01-31T11:36:13;99312.56;;;9.08;56.59
21433;BME280;18592;49.708;10.900;2023-01-31T11:38:23;99300.16;;;9.12;56.64
21433;BME280;18592;49.708;10.900;2023-01-31T11:42:49;99294.13;;;9.10;56.04
21433;BME280;18592;49.708;10.900;2023-01-31T11:47:03;99293.69;;;9.13;56.09
21433;BME280;18592;49.708;10.900;2023-01-31T11:49:15;99290.34;;;9.11;56.09
21433;BME280;18592;49.708;10.900;2023-01-31T11:51:26;99295.78;;;9.11;55.85
21433;BME280;18592;49.708;10.900;2023-01-31T11:53:38;99291.63;;;9.09;55.70
21433;BME280;18592;49.708;10.900;2023-01-31T11:55:47;99298.97;;;9.08;55.32
21433;BME280;18592;49.708;10.900;2023-01-31T11:57:55;99274.94;;;9.05;55.22